HSNN

Nyala Airport

Nyala, Sudan
METAR HSNN 161100Z 03004KT CAVOK 33/M04 Q1015
Observed Flight Rules
Dec-16 @ 11:00 UTC (2 hours ago) Visual Flight Rules
Wind Visibility Clouds
30° at 4 knots 10,000+ meters
  • Clear skies
Temperatures Readings
Current 33°C / 91°F
Dewpoint -4°C / 25°F
Humidity 9%
Altimeter 29.97" Hg
Pressure 1015 hPa
Elevation 658
METAR HSNN 161100Z 03004KT CAVOK 33/M04 Q1015
Observed Flight Rules
Dec-16 @ 11:00 UTC
(2 hours ago)
VFR
Wind Visibility
30° at 4 knots 10,000+ meters
Clouds
  • Clear skies
Temperature Dewpoint
33°C / 91°F -4°C / 25°F
Humidity Altimeter Pressure
9% 29.97" Hg 1015 hPa